Portada
METAR-TAF:

METAR-TAF

Aeropuertos :

Aeropuerto de Luxemburgo Findel

Luxemburgo, Luxemburgo

latitud: 49-37N, longitud: 006-13E, altitud: 376 m

Observación

El informe se hizo hace 33 minutos, a las 06:50 UTC
Viento 9 kt del oeste
Temperatura 1°C
Humedad 93%
Presión 1027 hPa
Visibilidad 10 km o más
Escasas nubes a una altura de 500 ft

METAR: ELLX 210650Z 26009KT 9999 FEW005 01/00 Q1027 NOSIG

Hora: 08:23 (07:23 UTC)

Pronóstico

El informe se hizo hace 2 horas y 23 minutos, a las 05:00 UTC
Pronóstico válido del 21 a las 06 UTC al 22 a las 12 UTC
Viento 9 kt del oeste
Visibilidad 10 km o más
sin nubes por debajo de 1500 m y sin presencia de cumulonimbus.
Temporalmente
del 21 a las 06 UTC al 21 a las 09 UTC
Cielo nuboso a una altura de 600 ft

TAF: ELLX 210500Z 2106/2212 26009KT CAVOK TEMPO 2106/2109 BKN006

Observaciones y pronósticos meteorológicos de más de 4000 aeropuertos (mensajes METAR y TAF).

Los puntos amarillos y rojos representan las estaciones disponibles.

Ponga el ratón en el punto deseado para ver el nombre de la estación.

Haga clic para ver las observaciones y los pronósticos meteorológicos.

Para cambiar el mapa : haga clic en los botones verdes con una cruz de color negro para hacer un zoom, en el botón verde con un guión para alejar o en las flechas verdes para mapas adyacentes.


METAR-TAF: